createdAt,value
2018-03-29T00:00:08.195Z,100411.75
2018-03-29T00:02:36.544Z,100413.42
2018-03-29T00:05:04.880Z,100415.88
2018-03-29T00:07:33.973Z,100408.84
2018-03-29T00:10:02.307Z,100415.28
2018-03-29T00:12:30.795Z,100419.93
2018-03-29T00:14:59.163Z,100418.92
2018-03-29T00:17:28.283Z,100418.37
2018-03-29T00:19:56.595Z,100409.83
2018-03-29T00:22:24.925Z,100413.22
2018-03-29T00:24:54.035Z,100413.30
2018-03-29T00:27:22.373Z,100412.80
2018-03-29T00:29:51.507Z,100412.12
2018-03-29T00:32:20.638Z,100407.23
2018-03-29T00:34:49.009Z,100404.32
2018-03-29T00:37:17.373Z,100406.70
2018-03-29T00:39:46.470Z,100406.87
2018-03-29T00:42:15.597Z,100402.13
2018-03-29T00:44:43.930Z,100404.19
2018-03-29T00:47:12.273Z,100408.48
2018-03-29T00:49:40.615Z,100405.92
2018-03-29T00:52:08.963Z,100410.73
2018-03-29T00:54:37.287Z,100419.83
2018-03-29T00:57:05.644Z,100419.42
2018-03-29T00:59:34.733Z,100418.06
2018-03-29T01:02:03.116Z,100422.91
2018-03-29T01:04:32.367Z,100417.43
2018-03-29T01:07:00.711Z,100413.36
2018-03-29T01:09:29.841Z,100421.64
2018-03-29T01:11:58.287Z,100426.11
2018-03-29T01:14:27.427Z,100418.45
2018-03-29T01:16:55.766Z,100421.75
2018-03-29T01:19:24.089Z,100417.91
2018-03-29T01:21:52.433Z,100421.67
2018-03-29T01:24:20.845Z,100417.70
2018-03-29T01:26:49.279Z,100419.50
2018-03-29T01:29:17.667Z,100417.98
2018-03-29T01:31:46.840Z,100415.70
2018-03-29T01:34:15.185Z,100416.75
2018-03-29T01:36:43.531Z,100422.38
2018-03-29T01:39:11.895Z,100420.73
2018-03-29T01:41:40.271Z,100420.55
2018-03-29T01:44:08.649Z,100418.17
2018-03-29T01:46:37.743Z,100418.99
2018-03-29T01:49:06.122Z,100421.19
2018-03-29T01:51:34.505Z,100418.42
2018-03-29T01:54:02.949Z,100423.17
2018-03-29T01:56:32.055Z,100418.64
2018-03-29T01:59:01.205Z,100426.09
2018-03-29T02:01:29.541Z,100424.72
2018-03-29T02:03:57.864Z,100431.11
2018-03-29T02:06:27.042Z,100438.16
2018-03-29T02:08:55.443Z,100430.70
2018-03-29T02:11:23.809Z,100438.05
2018-03-29T02:13:52.265Z,100439.14
2018-03-29T02:16:20.718Z,100435.98
2018-03-29T02:18:49.068Z,100431.26
2018-03-29T02:21:17.424Z,100434.83
2018-03-29T02:23:45.776Z,100430.47
2018-03-29T02:26:14.874Z,100431.84
2018-03-29T02:28:43.229Z,100433.58
2018-03-29T02:31:11.542Z,100436.00
2018-03-29T02:33:40.679Z,100439.47
2018-03-29T02:36:09.202Z,100433.62
2018-03-29T02:38:37.560Z,100434.53
2018-03-29T02:41:05.909Z,100435.08
2018-03-29T02:43:34.253Z,100438.61
2018-03-29T02:46:02.615Z,100439.52
2018-03-29T02:48:30.954Z,100443.09
2018-03-29T02:51:00.099Z,100444.86
2018-03-29T02:53:28.459Z,100446.87
2018-03-29T02:55:56.782Z,100443.87
2018-03-29T02:58:25.130Z,100444.33
2018-03-29T03:00:53.492Z,100438.70
2018-03-29T03:03:22.603Z,100442.86
2018-03-29T03:05:50.969Z,100440.63
2018-03-29T03:08:19.314Z,100444.74
2018-03-29T03:10:48.438Z,100441.59
2018-03-29T03:13:16.765Z,100437.70
2018-03-29T03:15:45.887Z,100434.31
2018-03-29T03:18:14.214Z,100436.00
2018-03-29T03:20:42.655Z,100438.47
2018-03-29T03:23:11.061Z,100438.20
2018-03-29T03:25:39.396Z,100443.15
2018-03-29T03:28:07.776Z,100437.97
2018-03-29T03:30:36.184Z,100441.47
2018-03-29T03:33:05.281Z,100443.83
2018-03-29T03:35:34.364Z,100443.43
2018-03-29T03:38:02.723Z,100450.03
2018-03-29T03:40:31.085Z,100449.25
2018-03-29T03:42:59.501Z,100448.13
2018-03-29T03:45:27.845Z,100448.62
2018-03-29T03:47:57.071Z,100452.30
2018-03-29T03:50:25.434Z,100463.55
2018-03-29T03:52:53.757Z,100465.06
2018-03-29T03:55:22.088Z,100466.00
2018-03-29T03:57:50.671Z,100475.55
2018-03-29T04:00:19.001Z,100472.11
2018-03-29T04:02:47.391Z,100478.64
2018-03-29T04:05:15.723Z,100477.09
2018-03-29T04:07:44.876Z,100472.86
2018-03-29T04:10:13.210Z,100468.03
2018-03-29T04:12:41.598Z,100477.23
2018-03-29T04:15:10.000Z,100475.10
2018-03-29T04:17:38.504Z,100481.55
2018-03-29T04:20:08.486Z,100481.11
2018-03-29T04:22:36.851Z,100485.53
2018-03-29T04:25:05.173Z,100483.34
2018-03-29T04:27:33.645Z,100490.70
2018-03-29T04:30:02.024Z,100491.83
2018-03-29T04:32:30.395Z,100491.77
2018-03-29T04:34:58.805Z,100491.98
2018-03-29T04:37:27.177Z,100500.12
2018-03-29T04:39:55.530Z,100493.83
2018-03-29T04:42:23.944Z,100492.56
2018-03-29T04:44:52.289Z,100495.21
2018-03-29T04:47:21.476Z,100494.80
2018-03-29T04:49:50.625Z,100500.70
2018-03-29T04:52:19.091Z,100498.64
2018-03-29T04:54:47.450Z,100496.12
2018-03-29T04:57:15.876Z,100498.34
2018-03-29T04:59:44.213Z,100502.91
2018-03-29T05:02:13.422Z,100503.22
2018-03-29T05:04:41.764Z,100503.70
2018-03-29T05:07:10.233Z,100504.83
2018-03-29T05:09:38.651Z,100512.53
2018-03-29T05:12:07.487Z,100511.70
2018-03-29T05:14:35.860Z,100507.00
2018-03-29T05:17:04.185Z,100508.33
2018-03-29T05:19:32.520Z,100512.59
2018-03-29T05:22:00.854Z,100508.98
2018-03-29T05:24:30.063Z,100512.83
2018-03-29T05:26:59.130Z,100514.65
2018-03-29T05:29:27.517Z,100514.15
2018-03-29T05:31:55.864Z,100512.88
2018-03-29T05:34:24.304Z,100512.16
2018-03-29T05:36:52.944Z,100512.32
2018-03-29T05:39:21.825Z,100510.23
2018-03-29T05:41:50.214Z,100508.65
2018-03-29T05:44:18.552Z,100513.15
2018-03-29T05:46:47.027Z,100505.73
2018-03-29T05:49:15.449Z,100509.49
2018-03-29T05:51:43.840Z,100511.44
2018-03-29T05:54:12.188Z,100512.97
2018-03-29T05:56:40.541Z,100510.19
2018-03-29T05:59:08.897Z,100513.05
2018-03-29T06:01:37.244Z,100509.23
2018-03-29T06:04:06.386Z,100508.33
2018-03-29T06:06:34.772Z,100520.25
2018-03-29T06:09:03.220Z,100519.53
2018-03-29T06:11:31.608Z,100510.50
2018-03-29T06:14:05.603Z,100515.41
2018-03-29T06:16:39.537Z,100515.47
2018-03-29T06:19:09.700Z,100519.00
2018-03-29T06:21:38.126Z,100524.95
2018-03-29T06:24:06.512Z,100523.13
2018-03-29T06:26:34.860Z,100520.62
2018-03-29T06:29:04.007Z,100528.72
2018-03-29T06:31:32.331Z,100526.66
2018-03-29T06:34:00.700Z,100529.52
2018-03-29T06:36:29.044Z,100533.78
2018-03-29T06:38:57.397Z,100532.13
2018-03-29T06:41:26.483Z,100528.37
2018-03-29T06:43:54.861Z,100528.67
2018-03-29T06:46:23.290Z,100532.31
2018-03-29T06:48:52.381Z,100535.94
2018-03-29T06:51:20.731Z,100537.53
2018-03-29T06:53:49.108Z,100535.28
2018-03-29T06:56:18.266Z,100536.39
2018-03-29T06:58:46.578Z,100544.54
2018-03-29T07:01:14.895Z,100545.59
2018-03-29T07:03:43.264Z,100541.75
2018-03-29T07:06:12.403Z,100545.23
2018-03-29T07:08:40.724Z,100546.02
2018-03-29T07:11:09.025Z,100549.35
2018-03-29T07:13:37.524Z,100549.55
2018-03-29T07:16:06.621Z,100546.98
2018-03-29T07:18:35.731Z,100555.22
2018-03-29T07:21:04.108Z,100551.83
2018-03-29T07:23:32.450Z,100552.50
2018-03-29T07:26:00.762Z,100554.32
2018-03-29T07:28:30.173Z,100556.19
2018-03-29T07:30:58.613Z,100556.42
2018-03-29T07:33:26.952Z,100560.48
2018-03-29T07:35:55.328Z,100562.56
2018-03-29T07:38:23.644Z,100562.86
2018-03-29T07:40:51.974Z,100567.36
2018-03-29T07:43:21.076Z,100567.44
2018-03-29T07:45:50.152Z,100572.79
2018-03-29T07:48:18.500Z,100567.67
2018-03-29T07:50:46.814Z,100563.53
2018-03-29T07:53:15.164Z,100567.78
2018-03-29T07:55:43.503Z,100570.13
2018-03-29T07:58:12.638Z,100565.95
2018-03-29T08:00:40.952Z,100562.16
2018-03-29T08:03:10.047Z,100563.70
2018-03-29T08:05:38.379Z,100566.02
2018-03-29T08:08:07.311Z,100563.55
2018-03-29T08:10:35.644Z,100569.27
2018-03-29T08:13:03.991Z,100574.53
2018-03-29T08:15:32.302Z,100571.59
2018-03-29T08:18:01.398Z,100573.22
2018-03-29T08:20:30.504Z,100576.55
